createdAt,value
2023-06-10T00:00:46.437Z,18.60
2023-06-10T00:03:14.170Z,18.60
2023-06-10T00:05:42.394Z,18.60
2023-06-10T00:08:09.897Z,18.50
2023-06-10T00:10:38.205Z,18.50
2023-06-10T00:13:05.971Z,18.50
2023-06-10T00:15:33.309Z,18.40
2023-06-10T00:18:02.371Z,18.40
2023-06-10T00:20:30.512Z,18.40
2023-06-10T00:23:00.508Z,18.30
2023-06-10T00:25:27.973Z,18.30
2023-06-10T00:27:55.943Z,18.20
2023-06-10T00:30:23.351Z,18.20
2023-06-10T00:32:50.830Z,18.10
2023-06-10T00:35:18.330Z,18.10
2023-06-10T00:37:46.438Z,18.10
2023-06-10T00:40:14.078Z,18.10
2023-06-10T00:42:41.545Z,18.10
2023-06-10T00:45:09.970Z,18.00
2023-06-10T00:47:37.715Z,18.10
2023-06-10T00:50:05.614Z,18.00
2023-06-10T00:52:33.149Z,18.00
2023-06-10T00:55:00.640Z,17.90
2023-06-10T00:57:28.278Z,17.90
2023-06-10T00:59:55.686Z,17.90
2023-06-10T01:02:23.186Z,17.90
2023-06-10T01:04:50.734Z,17.80
2023-06-10T01:07:29.900Z,17.80
2023-06-10T01:10:03.966Z,17.80
2023-06-10T01:12:42.556Z,17.70
2023-06-10T01:15:11.651Z,17.70
2023-06-10T01:18:00.131Z,17.60
2023-06-10T01:20:28.242Z,17.60
2023-06-10T01:22:58.904Z,17.60
2023-06-10T01:25:30.327Z,17.60
2023-06-10T01:28:21.260Z,17.50
2023-06-10T01:31:09.743Z,17.50
2023-06-10T01:33:39.017Z,17.50
2023-06-10T01:36:06.768Z,17.50
2023-06-10T01:38:37.826Z,17.50
2023-06-10T01:41:05.312Z,17.50
2023-06-10T01:43:35.767Z,17.40
2023-06-10T01:46:03.162Z,17.30
2023-06-10T01:48:31.178Z,17.30
2023-06-10T01:50:58.612Z,17.30
2023-06-10T01:53:26.093Z,17.30
2023-06-10T01:55:54.854Z,17.20
2023-06-10T01:58:22.201Z,17.20
2023-06-10T02:00:49.666Z,17.20
2023-06-10T02:03:17.222Z,17.20
2023-06-10T02:05:44.991Z,17.20
2023-06-10T02:08:12.351Z,17.20
2023-06-10T02:10:39.779Z,17.10
2023-06-10T02:13:07.297Z,17.10
2023-06-10T02:15:35.014Z,17.10
2023-06-10T02:18:02.399Z,17.10
2023-06-10T02:20:29.785Z,17.10
2023-06-10T02:22:58.105Z,17.10
2023-06-10T02:25:25.483Z,17.00
2023-06-10T02:27:52.878Z,17.00
2023-06-10T02:30:20.337Z,17.00
2023-06-10T02:32:49.326Z,17.00
2023-06-10T02:35:18.897Z,17.00
2023-06-10T02:37:46.313Z,16.90
2023-06-10T02:40:13.841Z,16.90
2023-06-10T02:42:41.279Z,16.90
2023-06-10T02:45:09.949Z,16.90
2023-06-10T02:47:43.440Z,16.90
2023-06-10T02:50:12.877Z,16.90
2023-06-10T02:52:49.975Z,16.80
2023-06-10T02:55:17.430Z,16.80
2023-06-10T02:57:50.432Z,16.80
2023-06-10T03:00:22.679Z,16.80
2023-06-10T03:02:50.877Z,16.80
2023-06-10T03:05:23.413Z,16.70
2023-06-10T03:07:52.701Z,16.70
2023-06-10T03:10:20.696Z,16.70
2023-06-10T03:12:48.087Z,16.60
2023-06-10T03:15:16.897Z,16.60
2023-06-10T03:17:44.474Z,16.60
2023-06-10T03:20:12.549Z,16.60
2023-06-10T03:22:42.016Z,16.60
2023-06-10T03:25:15.336Z,16.60
2023-06-10T03:27:45.212Z,16.60
2023-06-10T03:30:14.668Z,16.60
2023-06-10T03:32:43.238Z,16.60
2023-06-10T03:35:13.172Z,16.50
2023-06-10T03:37:40.816Z,16.60
2023-06-10T03:40:11.426Z,16.60
2023-06-10T03:42:41.720Z,16.60
2023-06-10T03:45:10.734Z,16.50
2023-06-10T03:47:38.781Z,16.50
2023-06-10T03:50:10.001Z,16.50
2023-06-10T03:52:39.048Z,16.60
2023-06-10T03:55:08.269Z,16.60
2023-06-10T03:57:36.233Z,16.60
2023-06-10T04:00:09.530Z,16.60
2023-06-10T04:02:50.522Z,16.50
2023-06-10T04:05:26.920Z,16.50
2023-06-10T04:07:54.566Z,16.60
2023-06-10T04:10:22.216Z,16.60
2023-06-10T04:12:49.692Z,16.60
2023-06-10T04:15:17.199Z,16.60
2023-06-10T04:17:45.127Z,16.70
2023-06-10T04:20:13.894Z,16.70
2023-06-10T04:22:45.346Z,16.70
2023-06-10T04:25:13.213Z,16.70
2023-06-10T04:27:43.107Z,16.70
2023-06-10T04:30:12.152Z,16.70
2023-06-10T04:32:40.134Z,16.70
2023-06-10T04:35:13.802Z,16.80
2023-06-10T04:37:42.077Z,16.80
2023-06-10T04:40:10.689Z,16.80
2023-06-10T04:42:38.261Z,16.80
2023-06-10T04:45:07.187Z,16.80
2023-06-10T04:47:35.193Z,16.90
2023-06-10T04:50:03.055Z,16.90
2023-06-10T04:52:30.664Z,16.90
2023-06-10T04:54:59.490Z,16.90
2023-06-10T04:57:27.277Z,17.00
2023-06-10T04:59:54.767Z,17.00
2023-06-10T05:02:22.321Z,17.00
2023-06-10T05:04:49.863Z,17.00
2023-06-10T05:07:17.228Z,17.10
2023-06-10T05:09:44.699Z,17.10
2023-06-10T05:12:12.085Z,17.20
2023-06-10T05:14:39.438Z,17.20
2023-06-10T05:17:07.285Z,17.20
2023-06-10T05:19:36.762Z,17.30
2023-06-10T05:22:04.455Z,17.30
2023-06-10T05:24:31.822Z,17.40
2023-06-10T05:26:59.204Z,17.40
2023-06-10T05:29:26.857Z,17.40
2023-06-10T05:31:54.831Z,17.50
2023-06-10T05:34:22.239Z,17.50
2023-06-10T05:36:49.622Z,17.60
2023-06-10T05:39:16.998Z,17.60
2023-06-10T05:41:44.368Z,17.70
2023-06-10T05:44:14.076Z,17.70
2023-06-10T05:46:41.807Z,17.80
2023-06-10T05:49:09.194Z,17.80
2023-06-10T05:51:38.675Z,17.90
2023-06-10T05:54:06.183Z,17.90
2023-06-10T05:56:33.559Z,18.00
2023-06-10T05:59:00.909Z,18.10
2023-06-10T06:01:28.330Z,18.10
2023-06-10T06:03:56.176Z,18.20
2023-06-10T06:06:24.251Z,18.20
2023-06-10T06:08:51.593Z,18.30
2023-06-10T06:11:19.239Z,18.30
2023-06-10T06:13:46.798Z,18.40
2023-06-10T06:16:14.790Z,18.40
2023-06-10T06:18:42.182Z,18.50
2023-06-10T06:21:09.540Z,18.50
2023-06-10T06:23:36.911Z,18.60
2023-06-10T06:26:05.191Z,18.60
2023-06-10T06:28:33.999Z,18.70
2023-06-10T06:31:01.434Z,18.80
2023-06-10T06:33:28.817Z,18.80
2023-06-10T06:35:56.605Z,18.90
2023-06-10T06:38:23.925Z,18.90
2023-06-10T06:40:51.373Z,18.90
2023-06-10T06:43:19.607Z,18.80
2023-06-10T06:46:17.565Z,18.80
2023-06-10T06:48:45.777Z,18.80
2023-06-10T06:51:13.262Z,18.80
2023-06-10T06:53:45.422Z,18.90
2023-06-10T06:56:13.266Z,19.00
2023-06-10T06:58:40.798Z,19.10
2023-06-10T07:01:08.308Z,19.20
2023-06-10T07:03:37.171Z,19.30
2023-06-10T07:06:04.734Z,19.40
2023-06-10T07:08:32.103Z,19.40
2023-06-10T07:10:59.482Z,19.60
2023-06-10T07:13:26.888Z,19.70
2023-06-10T07:15:54.300Z,19.70
2023-06-10T07:18:21.684Z,19.70
2023-06-10T07:20:49.053Z,19.80
2023-06-10T07:23:16.492Z,19.90
2023-06-10T07:25:43.846Z,19.90
2023-06-10T07:28:11.238Z,20.00
2023-06-10T07:30:38.703Z,20.10
2023-06-10T07:33:08.880Z,20.10
2023-06-10T07:35:36.317Z,20.10
2023-06-10T07:38:03.701Z,20.20
2023-06-10T07:40:33.567Z,20.20
2023-06-10T07:43:02.528Z,20.30
2023-06-10T07:45:29.906Z,20.40
2023-06-10T07:47:57.544Z,20.40
2023-06-10T07:50:25.135Z,20.50
2023-06-10T07:52:52.534Z,20.50
2023-06-10T07:55:19.936Z,20.60
2023-06-10T07:57:47.276Z,20.60
2023-06-10T08:00:14.970Z,20.70
2023-06-10T08:02:42.352Z,20.80
2023-06-10T08:05:09.985Z,20.90
2023-06-10T08:07:37.762Z,20.90
2023-06-10T08:10:06.072Z,21.00
2023-06-10T08:12:34.095Z,21.00
2023-06-10T08:15:01.864Z,21.00
2023-06-10T08:17:29.285Z,21.00
2023-06-10T08:19:56.759Z,21.10
2023-06-10T08:22:24.272Z,21.10
2023-06-10T08:24:51.606Z,21.20
2023-06-10T08:27:19.002Z,21.30
2023-06-10T08:29:46.375Z,21.40
2023-06-10T08:32:13.802Z,21.50
2023-06-10T08:34:41.482Z,21.60
2023-06-10T08:37:08.867Z,21.70
2023-06-10T08:39:36.223Z,21.80
2023-06-10T08:42:17.811Z,21.90
2023-06-10T08:44:45.218Z,21.90
2023-06-10T08:47:16.555Z,21.90
2023-06-10T08:49:47.728Z,22.00
2023-06-10T08:52:19.110Z,22.10
2023-06-10T08:54:49.522Z,22.10
2023-06-10T08:57:16.908Z,22.10
2023-06-10T08:59:44.286Z,22.20
2023-06-10T09:02:11.804Z,22.20
2023-06-10T09:04:39.692Z,22.30
2023-06-10T09:07:07.178Z,22.30
2023-06-10T09:09:34.615Z,22.40
2023-06-10T09:12:01.966Z,22.40
2023-06-10T09:14:29.376Z,22.40
2023-06-10T09:16:59.365Z,22.40
2023-06-10T09:19:26.833Z,22.40
2023-06-10T09:21:54.174Z,22.40
2023-06-10T09:24:25.243Z,22.40
2023-06-10T09:27:09.483Z,22.40
2023-06-10T09:29:53.310Z,22.40
2023-06-10T09:32:21.125Z,22.50
2023-06-10T09:34:48.791Z,22.50
2023-06-10T09:37:21.759Z,22.60
2023-06-10T09:40:09.056Z,22.70
2023-06-10T09:42:38.646Z,22.70
2023-06-10T09:45:06.995Z,22.80
2023-06-10T09:47:34.442Z,22.90
2023-06-10T09:50:02.846Z,22.90
2023-06-10T09:52:30.646Z,22.90
2023-06-10T09:55:02.418Z,22.80
2023-06-10T09:57:34.632Z,22.80
2023-06-10T10:00:06.579Z,22.90
2023-06-10T10:02:49.343Z,22.90
2023-06-10T10:05:17.614Z,22.80
2023-06-10T10:07:45.675Z,22.80
2023-06-10T10:10:14.075Z,22.70
2023-06-10T10:12:41.659Z,22.70
2023-06-10T10:15:10.335Z,22.80
2023-06-10T10:18:04.749Z,22.90
2023-06-10T10:20:33.438Z,23.00
2023-06-10T10:23:00.903Z,23.10
2023-06-10T10:25:35.660Z,23.20
2023-06-10T10:28:11.631Z,23.30
2023-06-10T10:30:44.100Z,23.40
2023-06-10T10:33:14.347Z,23.50
2023-06-10T10:35:41.758Z,23.50
2023-06-10T10:38:09.101Z,23.50
2023-06-10T10:40:36.432Z,23.60
2023-06-10T10:43:03.799Z,23.70
2023-06-10T10:45:31.264Z,23.70
2023-06-10T10:47:58.813Z,23.80
2023-06-10T10:50:27.144Z,23.80
2023-06-10T10:53:02.340Z,23.90
2023-06-10T10:55:30.100Z,24.00
2023-06-10T10:58:07.557Z,24.00
2023-06-10T11:00:36.290Z,24.00
2023-06-10T11:03:05.878Z,23.90
2023-06-10T11:05:40.991Z,23.90
2023-06-10T11:08:09.716Z,23.70
2023-06-10T11:10:41.190Z,23.70
2023-06-10T11:13:14.544Z,23.70
2023-06-10T11:15:51.958Z,23.70
2023-06-10T11:18:26.580Z,23.70
2023-06-10T11:21:05.607Z,23.80
2023-06-10T11:23:40.776Z,23.90
2023-06-10T11:26:27.874Z,23.90
2023-06-10T11:28:55.459Z,23.90
2023-06-10T11:31:26.286Z,23.90
2023-06-10T11:34:05.731Z,23.80
2023-06-10T11:36:34.334Z,23.50
2023-06-10T11:39:06.628Z,23.40
2023-06-10T11:41:35.088Z,23.20
2023-06-10T11:44:10.234Z,23.10
2023-06-10T11:46:38.207Z,23.10
2023-06-10T11:49:06.418Z,23.30
2023-06-10T11:51:38.754Z,23.50
2023-06-10T11:54:06.491Z,23.70
2023-06-10T11:56:33.862Z,23.80
2023-06-10T11:59:06.882Z,23.80
2023-06-10T12:01:35.317Z,23.80
2023-06-10T12:04:10.030Z,23.80
2023-06-10T12:06:41.259Z,23.80
2023-06-10T12:09:24.253Z,24.00
2023-06-10T12:11:58.614Z,24.10
2023-06-10T12:15:00.030Z,24.10
2023-06-10T12:17:34.329Z,24.20
2023-06-10T12:20:02.227Z,24.30
2023-06-10T12:22:40.518Z,24.30
2023-06-10T12:25:09.040Z,24.30
2023-06-10T12:27:37.735Z,24.40
2023-06-10T12:30:07.087Z,24.50
2023-06-10T12:32:45.618Z,24.60
2023-06-10T12:35:19.332Z,24.60
2023-06-10T12:37:57.928Z,24.60
2023-06-10T12:40:29.806Z,24.70
2023-06-10T12:42:57.484Z,24.70
2023-06-10T12:45:31.700Z,24.70
2023-06-10T12:48:10.281Z,24.70
2023-06-10T12:50:40.021Z,24.70
2023-06-10T12:53:07.659Z,24.80
2023-06-10T12:55:35.181Z,24.80
2023-06-10T12:58:02.892Z,24.80
2023-06-10T13:00:35.748Z,24.90
2023-06-10T13:03:03.348Z,24.90
2023-06-10T13:05:31.249Z,24.80
2023-06-10T13:07:59.122Z,24.80
2023-06-10T13:10:26.843Z,24.80
2023-06-10T13:12:55.824Z,24.80
2023-06-10T13:15:23.585Z,24.70
2023-06-10T13:17:51.962Z,24.60
2023-06-10T13:20:20.080Z,24.40
2023-06-10T13:22:48.571Z,24.30
2023-06-10T13:25:16.205Z,24.20
2023-06-10T13:27:46.141Z,24.20
2023-06-10T13:30:13.871Z,24.20
2023-06-10T13:32:42.259Z,24.30
2023-06-10T13:35:10.229Z,24.30
2023-06-10T13:37:38.044Z,24.40
2023-06-10T13:40:06.414Z,24.40
2023-06-10T13:42:33.980Z,24.50
2023-06-10T13:45:01.368Z,24.50
2023-06-10T13:47:29.142Z,24.60
2023-06-10T13:49:56.508Z,24.60
2023-06-10T13:52:23.861Z,24.60
2023-06-10T13:54:51.271Z,24.50
2023-06-10T13:57:18.626Z,24.50
2023-06-10T13:59:46.172Z,24.60
2023-06-10T14:02:13.674Z,24.60
2023-06-10T14:04:41.221Z,24.70
2023-06-10T14:07:08.649Z,24.70
2023-06-10T14:09:36.019Z,24.70
2023-06-10T14:12:04.721Z,24.70
2023-06-10T14:14:34.892Z,24.70
2023-06-10T14:17:02.799Z,24.70
2023-06-10T14:19:30.523Z,24.70
2023-06-10T14:21:57.843Z,24.80
2023-06-10T14:24:25.579Z,24.80
2023-06-10T14:26:52.997Z,24.80
2023-06-10T14:29:20.635Z,24.80
2023-06-10T14:31:48.095Z,24.80
2023-06-10T14:34:15.824Z,24.80
2023-06-10T14:36:43.308Z,24.80
2023-06-10T14:39:10.809Z,24.80
2023-06-10T14:41:38.206Z,24.80
2023-06-10T14:44:05.549Z,24.70
2023-06-10T14:46:33.057Z,24.70
2023-06-10T14:49:00.613Z,24.70
2023-06-10T14:51:28.168Z,24.70
2023-06-10T14:53:55.597Z,24.70
2023-06-10T14:56:23.048Z,24.70
2023-06-10T14:58:50.437Z,24.80
2023-06-10T15:01:17.865Z,24.90
2023-06-10T15:03:45.860Z,24.90
2023-06-10T15:06:13.299Z,24.90
2023-06-10T15:08:43.979Z,24.90
2023-06-10T15:11:12.103Z,24.90
2023-06-10T15:13:39.473Z,25.00
2023-06-10T15:16:07.334Z,25.10
2023-06-10T15:18:34.835Z,25.20
2023-06-10T15:21:02.231Z,25.20
2023-06-10T15:23:29.669Z,25.20
2023-06-10T15:25:57.028Z,25.20
2023-06-10T15:28:26.496Z,25.20
2023-06-10T15:30:57.429Z,25.20
2023-06-10T15:33:24.764Z,25.10
2023-06-10T15:35:53.733Z,25.10
2023-06-10T15:38:21.283Z,25.10
2023-06-10T15:40:48.905Z,25.20
2023-06-10T15:43:16.309Z,25.20
2023-06-10T15:45:43.666Z,25.30
2023-06-10T15:48:11.326Z,25.40
2023-06-10T15:50:39.047Z,25.50
2023-06-10T15:53:06.394Z,25.40
2023-06-10T15:55:33.729Z,25.30
2023-06-10T15:58:01.659Z,25.20
2023-06-10T16:00:29.029Z,25.10
2023-06-10T16:02:56.525Z,25.00
2023-06-10T16:05:24.044Z,24.90
2023-06-10T16:07:51.385Z,24.90
2023-06-10T16:10:18.905Z,24.80
2023-06-10T16:12:46.601Z,24.80
2023-06-10T16:15:14.020Z,24.90
2023-06-10T16:17:41.478Z,24.90
2023-06-10T16:20:09.176Z,25.00
2023-06-10T16:22:36.560Z,24.90
2023-06-10T16:25:04.154Z,24.80
2023-06-10T16:27:31.505Z,24.70
2023-06-10T16:29:58.925Z,24.70
2023-06-10T16:32:26.272Z,24.70
2023-06-10T16:34:53.764Z,24.70
2023-06-10T16:37:21.254Z,24.60
2023-06-10T16:39:48.643Z,24.50
2023-06-10T16:42:15.992Z,24.40
2023-06-10T16:44:43.378Z,24.30
2023-06-10T16:47:11.155Z,24.30
2023-06-10T16:49:39.150Z,24.20
2023-06-10T16:52:06.950Z,24.10
2023-06-10T16:54:34.317Z,24.10
2023-06-10T16:57:02.363Z,24.00
2023-06-10T16:59:29.726Z,24.00
2023-06-10T17:01:57.120Z,23.90
2023-06-10T17:04:24.510Z,23.90
2023-06-10T17:06:52.427Z,23.80
2023-06-10T17:09:21.232Z,23.80
2023-06-10T17:11:48.601Z,23.70
2023-06-10T17:14:16.069Z,23.70
2023-06-10T17:16:43.517Z,23.80
2023-06-10T17:19:11.060Z,23.80
2023-06-10T17:21:38.444Z,23.80
2023-06-10T17:24:06.272Z,23.90
2023-06-10T17:26:33.661Z,23.90
2023-06-10T17:29:02.810Z,23.80
2023-06-10T17:31:31.214Z,23.70
2023-06-10T17:33:58.615Z,23.60
2023-06-10T17:36:25.945Z,23.60
2023-06-10T17:38:53.298Z,23.50
2023-06-10T17:41:20.679Z,23.40
2023-06-10T17:43:48.036Z,23.40
2023-06-10T17:46:15.457Z,23.30
2023-06-10T17:48:42.798Z,23.30
2023-06-10T17:51:11.150Z,23.20
2023-06-10T17:53:38.505Z,23.10
2023-06-10T17:56:05.975Z,23.00
2023-06-10T17:58:33.464Z,23.00
2023-06-10T18:01:00.826Z,22.90
2023-06-10T18:03:28.762Z,22.80
2023-06-10T18:05:56.464Z,22.70
2023-06-10T18:08:23.880Z,22.70
2023-06-10T18:10:51.273Z,22.60
2023-06-10T18:13:18.684Z,22.60
2023-06-10T18:15:46.230Z,22.50
2023-06-10T18:18:13.664Z,22.50
2023-06-10T18:20:41.086Z,22.40
2023-06-10T18:23:08.459Z,22.40
2023-06-10T18:25:35.819Z,22.30
2023-06-10T18:28:03.240Z,22.30
2023-06-10T18:30:31.256Z,22.20
2023-06-10T18:32:58.746Z,22.20
2023-06-10T18:35:26.277Z,22.10
2023-06-10T18:37:53.645Z,22.10
2023-06-10T18:40:21.113Z,22.10
2023-06-10T18:42:48.446Z,22.00
2023-06-10T18:45:16.168Z,21.90
2023-06-10T18:47:57.050Z,21.80
2023-06-10T18:50:25.959Z,21.80
2023-06-10T18:52:53.572Z,21.70
2023-06-10T18:55:20.941Z,21.70
2023-06-10T18:57:48.348Z,21.60
2023-06-10T19:00:16.276Z,21.60
2023-06-10T19:02:43.814Z,21.60
2023-06-10T19:05:13.806Z,21.50
2023-06-10T19:07:41.480Z,21.50
2023-06-10T19:10:09.265Z,21.40
2023-06-10T19:12:36.629Z,21.40
2023-06-10T19:15:04.684Z,21.40
2023-06-10T19:17:32.102Z,21.30
2023-06-10T19:19:59.503Z,21.30
2023-06-10T19:22:26.933Z,21.20
2023-06-10T19:25:05.049Z,21.20
2023-06-10T19:27:32.532Z,21.10
2023-06-10T19:30:00.786Z,21.00
2023-06-10T19:32:28.564Z,21.00
2023-06-10T19:34:56.239Z,21.00
2023-06-10T19:37:23.654Z,20.90
2023-06-10T19:39:51.145Z,20.80
2023-06-10T19:42:18.580Z,20.80
2023-06-10T19:44:46.124Z,20.80
2023-06-10T19:47:13.503Z,20.80
2023-06-10T19:49:40.936Z,20.80
2023-06-10T19:52:08.931Z,20.80
2023-06-10T19:54:36.771Z,20.70
2023-06-10T19:57:04.535Z,20.70
2023-06-10T19:59:33.646Z,20.60
2023-06-10T20:02:01.132Z,20.60
2023-06-10T20:04:28.552Z,20.60
2023-06-10T20:06:56.055Z,20.60
2023-06-10T20:09:23.393Z,20.50
2023-06-10T20:11:50.936Z,20.50
2023-06-10T20:14:18.451Z,20.40
2023-06-10T20:16:46.379Z,20.40
2023-06-10T20:19:13.974Z,20.40
2023-06-10T20:21:41.386Z,20.40
2023-06-10T20:24:09.250Z,20.30
2023-06-10T20:26:36.757Z,20.30
2023-06-10T20:29:04.414Z,20.20
2023-06-10T20:31:31.942Z,20.20
2023-06-10T20:33:59.326Z,20.20
2023-06-10T20:36:27.269Z,20.10
2023-06-10T20:38:55.987Z,20.10
2023-06-10T20:41:23.306Z,20.10
2023-06-10T20:43:50.778Z,20.10
2023-06-10T20:46:18.169Z,20.20
2023-06-10T20:48:45.588Z,20.20
2023-06-10T20:51:13.006Z,20.30
2023-06-10T20:53:40.382Z,20.30
2023-06-10T20:56:08.050Z,20.40
2023-06-10T20:58:35.559Z,20.40
2023-06-10T21:01:02.971Z,20.40
2023-06-10T21:03:30.530Z,20.40
2023-06-10T21:05:57.965Z,20.40
2023-06-10T21:08:27.956Z,20.30
2023-06-10T21:10:55.731Z,20.20
2023-06-10T21:13:23.070Z,20.10
2023-06-10T21:15:50.599Z,20.00
2023-06-10T21:18:18.283Z,19.90
2023-06-10T21:20:45.782Z,19.80
2023-06-10T21:23:13.342Z,19.80
2023-06-10T21:25:41.621Z,19.80
2023-06-10T21:28:09.084Z,19.70
2023-06-10T21:30:36.487Z,19.60
2023-06-10T21:33:04.024Z,19.50
2023-06-10T21:35:31.453Z,19.50
2023-06-10T21:37:58.891Z,19.50
2023-06-10T21:40:26.287Z,19.40
2023-06-10T21:42:53.626Z,19.40
2023-06-10T21:45:20.995Z,19.40
2023-06-10T21:47:48.419Z,19.30
2023-06-10T21:50:15.802Z,19.30
2023-06-10T21:52:43.129Z,19.30
2023-06-10T21:55:11.343Z,19.20
2023-06-10T21:57:38.966Z,19.20
2023-06-10T22:00:12.284Z,19.20
2023-06-10T22:02:43.208Z,19.10
2023-06-10T22:05:10.783Z,19.10
2023-06-10T22:07:38.356Z,19.10
2023-06-10T22:10:06.560Z,19.10
2023-06-10T22:12:33.975Z,19.10
2023-06-10T22:15:01.452Z,19.00
2023-06-10T22:17:28.848Z,19.00
2023-06-10T22:19:56.286Z,19.00
2023-06-10T22:22:23.660Z,19.00
2023-06-10T22:24:57.306Z,18.90
2023-06-10T22:27:24.683Z,18.90
2023-06-10T22:29:52.124Z,18.90
2023-06-10T22:32:19.477Z,18.90
2023-06-10T22:34:47.104Z,18.80
2023-06-10T22:37:14.617Z,18.90
2023-06-10T22:39:41.996Z,18.80
2023-06-10T22:42:10.062Z,18.80
2023-06-10T22:44:37.669Z,18.80
2023-06-10T22:47:05.422Z,18.70
2023-06-10T22:49:32.786Z,18.70
2023-06-10T22:52:00.140Z,18.70
2023-06-10T22:54:28.333Z,18.60
2023-06-10T22:56:55.733Z,18.60
2023-06-10T22:59:23.146Z,18.60
2023-06-10T23:01:50.555Z,18.60
2023-06-10T23:04:17.921Z,18.60
2023-06-10T23:06:46.177Z,18.60
2023-06-10T23:09:14.374Z,18.50
2023-06-10T23:11:42.476Z,18.60
2023-06-10T23:14:10.484Z,18.60
2023-06-10T23:16:46.634Z,18.50
2023-06-10T23:19:19.177Z,18.50
2023-06-10T23:21:54.139Z,18.60
2023-06-10T23:24:28.526Z,18.60
2023-06-10T23:26:56.962Z,18.60
2023-06-10T23:29:24.770Z,18.60
2023-06-10T23:31:52.502Z,18.60
2023-06-10T23:34:20.471Z,18.60
2023-06-10T23:36:47.941Z,18.50
2023-06-10T23:39:15.580Z,18.50
2023-06-10T23:41:43.709Z,18.40
2023-06-10T23:44:14.160Z,18.30
2023-06-10T23:46:41.640Z,18.30
2023-06-10T23:49:10.133Z,18.30
2023-06-10T23:51:38.386Z,18.20
2023-06-10T23:54:06.846Z,18.20
2023-06-10T23:56:34.226Z,18.10
2023-06-10T23:59:01.601Z,18.20
